Time;durP1;ratioP1;P1;durP2;ratioP2;P2;SDS_P1;SDS_P2;PMS_P1;PMS_P2;Temp;Humidity;BMP_temperature;BMP_pressure;BME280_temperature;BME280_humidity;BME280_pressure;Samples;Min_cycle;Max_cycle;Signal;HPM_P1;HPM_P2
2023/01/30 00:00:56;;;;;;;26.07;9.53;;;;;;;6.82;75.35;99400.19;5095400;28;20539;-91
2023/01/30 00:03:23;;;;;;;17.37;8.60;;;;;;;6.87;75.35;99402.63;5095922;28;20172;-89
2023/01/30 00:05:49;;;;;;;21.47;10.57;;;;;;;6.99;74.91;99404.84;5095805;28;20277;-89
2023/01/30 00:08:16;;;;;;;17.50;8.90;;;;;;;6.97;74.79;99398.84;5096101;28;20232;-89
2023/01/30 00:10:43;;;;;;;20.70;10.23;;;;;;;7.03;74.50;99394.25;5095744;28;20241;-89
2023/01/30 00:13:09;;;;;;;19.33;9.67;;;;;;;7.10;74.83;99394.91;5095549;28;20200;-89
2023/01/30 00:15:35;;;;;;;18.03;9.57;;;;;;;7.15;74.92;99387.78;5095619;28;20259;-90
2023/01/30 00:18:01;;;;;;;21.53;10.07;;;;;;;7.19;74.15;99392.84;5094612;28;20344;-89
2023/01/30 00:20:27;;;;;;;22.17;10.73;;;;;;;7.22;74.51;99389.28;5095531;28;20170;-89
2023/01/30 00:22:52;;;;;;;21.70;10.17;;;;;;;7.21;74.10;99395.38;5094533;28;20271;-89
2023/01/30 00:25:18;;;;;;;22.63;10.13;;;;;;;6.97;74.44;99404.88;5095918;28;20256;-88
2023/01/30 00:27:43;;;;;;;17.57;8.43;;;;;;;7.02;74.63;99391.72;5095651;28;20193;-89
2023/01/30 00:30:09;;;;;;;19.60;8.97;;;;;;;7.10;74.37;99387.94;5094628;28;20259;-90
2023/01/30 00:32:34;;;;;;;19.03;9.50;;;;;;;7.17;74.65;99380.75;5095153;28;20302;-90
2023/01/30 00:35:00;;;;;;;19.23;9.07;;;;;;;7.17;74.05;99381.63;5094350;28;20199;-90
2023/01/30 00:37:25;;;;;;;21.30;10.57;;;;;;;7.14;74.33;99380.88;5095287;28;20193;-90
2023/01/30 00:39:51;;;;;;;23.13;10.03;;;;;;;7.06;74.47;99382.88;5094255;28;20594;-89
2023/01/30 00:47:45;;;;;;;39.77;13.07;;;;;;;7.10;73.89;99389.72;5095821;28;20614;-89
2023/01/30 00:50:10;;;;;;;32.37;11.90;;;;;;;7.01;74.42;99379.59;5094965;28;20327;-89
2023/01/30 00:52:36;;;;;;;32.83;10.57;;;;;;;7.06;74.74;99382.88;5094907;28;20280;-89
2023/01/30 00:55:01;;;;;;;24.33;12.23;;;;;;;7.11;74.81;99370.53;5094458;28;20243;-90
2023/01/30 00:57:27;;;;;;;21.40;11.03;;;;;;;7.14;74.05;99370.44;5094860;28;20173;-90
2023/01/30 00:59:53;;;;;;;23.40;11.20;;;;;;;7.23;74.15;99360.53;5094770;28;20242;-90
2023/01/30 01:02:19;;;;;;;24.60;10.10;;;;;;;7.23;74.64;99363.13;5094749;28;20173;-90
2023/01/30 01:04:44;;;;;;;20.50;10.50;;;;;;;7.27;74.19;99350.84;5095643;28;20172;-89
2023/01/30 01:07:11;;;;;;;21.90;11.30;;;;;;;7.25;73.38;99356.13;5093953;28;20198;-91
2023/01/30 01:09:37;;;;;;;22.40;9.57;;;;;;;7.28;73.84;99344.75;5093711;28;20238;-91
2023/01/30 01:12:03;;;;;;;25.53;10.30;;;;;;;7.28;73.45;99353.41;5093563;28;20204;-90
2023/01/30 01:14:29;;;;;;;24.27;11.73;;;;;;;7.32;73.43;99351.53;5093608;28;20189;-90
2023/01/30 01:16:54;;;;;;;22.40;10.97;;;;;;;7.33;73.37;99353.25;5094424;28;20230;-90
2023/01/30 01:19:20;;;;;;;23.13;11.37;;;;;;;7.35;73.35;99354.03;5093817;28;20183;-90
2023/01/30 01:21:45;;;;;;;24.00;11.67;;;;;;;7.33;73.76;99356.72;5094442;28;20620;-90
2023/01/30 01:24:13;;;;;;;23.77;11.07;;;;;;;7.31;73.90;99357.69;5093919;28;20187;-90
2023/01/30 01:26:38;;;;;;;27.27;11.80;;;;;;;7.28;73.21;99352.56;5093330;28;20278;-88
2023/01/30 01:29:04;;;;;;;23.53;11.00;;;;;;;7.28;73.43;99353.41;5094325;28;20269;-90
2023/01/30 01:31:29;;;;;;;26.43;10.73;;;;;;;7.29;73.44;99356.84;5094243;28;20390;-89
2023/01/30 01:33:55;;;;;;;20.33;9.57;;;;;;;7.22;73.54;99355.38;5094383;28;20212;-90
2023/01/30 01:36:21;;;;;;;21.00;10.27;;;;;;;7.26;73.61;99356.97;5094050;28;20690;-90
2023/01/30 01:38:46;;;;;;;25.57;11.37;;;;;;;7.29;73.65;99359.47;5093000;28;20401;-89
2023/01/30 01:41:13;;;;;;;22.87;10.97;;;;;;;7.29;73.24;99354.25;5093130;28;20180;-90
2023/01/30 01:44:02;;;;;;;30.27;10.53;;;;;;;7.17;74.22;99349.47;5093978;28;20181;-89
2023/01/30 01:46:33;;;;;;;23.87;10.57;;;;;;;7.12;73.44;99344.44;5094805;28;20603;-90
2023/01/30 01:49:02;;;;;;;21.63;9.70;;;;;;;7.14;73.59;99345.22;5094011;28;20183;-90
2023/01/30 01:51:30;;;;;;;21.57;11.30;;;;;;;7.13;73.99;99343.53;5092935;28;20173;-90
2023/01/30 01:54:25;;;;;;;21.27;9.67;;;;;;;7.15;73.38;99339.13;5093973;28;20200;-90
2023/01/30 01:56:50;;;;;;;20.90;9.53;;;;;;;7.14;73.71;99333.94;5076996;28;20631;-89
2023/01/30 01:59:43;;;;;;;22.10;10.23;;;;;;;7.19;73.41;99340.69;5092691;28;20210;-89
2023/01/30 02:02:12;;;;;;;22.00;10.00;;;;;;;7.24;73.55;99330.09;5093592;28;20185;-90
2023/01/30 02:05:03;;;;;;;21.90;9.53;;;;;;;7.28;73.45;99321.28;5094097;28;20301;-89
2023/01/30 02:07:35;;;;;;;18.40;9.17;;;;;;;7.26;73.29;99313.50;5092626;28;20180;-89
2023/01/30 02:10:01;;;;;;;21.73;10.40;;;;;;;7.26;72.92;99318.72;5093496;28;20165;-89
2023/01/30 02:12:26;;;;;;;18.37;8.47;;;;;;;7.22;72.99;99311.06;5093412;28;20682;-89
2023/01/30 02:14:55;;;;;;;23.73;8.50;;;;;;;7.13;72.69;99312.25;5093688;28;20199;-89
2023/01/30 02:17:22;;;;;;;20.77;9.23;;;;;;;7.14;72.62;99310.50;5093409;28;20173;-90
2023/01/30 02:19:53;;;;;;;17.57;8.63;;;;;;;7.20;72.68;99303.31;5092491;28;20268;-91
2023/01/30 02:22:48;;;;;;;19.67;8.53;;;;;;;7.22;72.37;99301.50;5093685;28;20171;-90
2023/01/30 02:25:51;;;;;;;19.27;9.50;;;;;;;7.20;72.98;99302.47;5092371;28;20237;-90
2023/01/30 02:28:36;;;;;;;22.63;9.97;;;;;;;7.23;72.52;99297.13;5093321;28;20523;-90
2023/01/30 02:31:14;;;;;;;19.80;8.00;;;;;;;7.22;72.37;99298.03;5092582;28;20614;-90
2023/01/30 02:33:56;;;;;;;17.07;8.77;;;;;;;7.24;72.82;99304.03;5093763;28;20187;-90
2023/01/30 02:36:26;;;;;;;23.13;9.23;;;;;;;7.22;72.58;99303.25;5092165;28;20168;-90
2023/01/30 02:39:15;;;;;;;23.33;8.50;;;;;;;7.24;72.74;99298.81;5093076;28;20177;-90
2023/01/30 02:42:18;;;;;;;19.23;9.80;;;;;;;7.19;72.34;99299.00;5092172;28;20238;-89
2023/01/30 02:45:18;;;;;;;19.97;9.37;;;;;;;7.17;72.36;99295.59;5092067;28;20283;-90
2023/01/30 02:47:53;;;;;;;20.73;9.37;;;;;;;7.16;72.70;99293.88;5092203;28;20647;-90
2023/01/30 02:50:24;;;;;;;19.77;9.43;;;;;;;7.18;72.59;99299.06;5092194;28;20228;-90
2023/01/30 02:52:51;;;;;;;21.47;10.00;;;;;;;7.15;72.48;99291.34;5093285;28;20242;-90
2023/01/30 02:55:22;;;;;;;23.97;11.10;;;;;;;7.15;72.59;99288.75;5093023;28;20164;-90
2023/01/30 02:57:48;;;;;;;20.10;10.20;;;;;;;7.14;73.07;99295.72;5092955;28;20168;-89
2023/01/30 03:00:18;;;;;;;19.10;9.23;;;;;;;7.14;72.86;99295.72;5092915;28;20182;-89
2023/01/30 03:03:17;;;;;;;17.67;8.40;;;;;;;7.16;72.39;99290.41;5093068;28;20164;-89
2023/01/30 03:06:06;;;;;;;17.17;8.23;;;;;;;7.17;71.99;99298.22;5093063;28;20177;-90
2023/01/30 03:08:46;;;;;;;17.00;8.77;;;;;;;7.12;72.29;99299.28;5066438;28;20180;-90
2023/01/30 03:11:12;;;;;;;17.30;8.80;;;;;;;7.11;72.55;99297.56;5095833;28;20183;-90
2023/01/30 03:13:51;;;;;;;27.10;9.97;;;;;;;7.11;72.67;99292.34;5097018;28;20188;-89
2023/01/30 03:16:24;;;;;;;20.57;8.50;;;;;;;7.11;72.25;99297.56;5096055;28;20172;-91
2023/01/30 03:18:49;;;;;;;22.70;9.10;;;;;;;7.13;72.24;99300.97;5097087;28;20239;-89
2023/01/30 03:21:15;;;;;;;15.23;7.87;;;;;;;7.12;71.64;99296.66;5095672;28;20248;-90
2023/01/30 03:23:40;;;;;;;16.13;7.93;;;;;;;7.11;71.99;99294.94;5095764;28;20635;-89
2023/01/30 03:26:13;;;;;;;15.90;7.97;;;;;;;7.12;72.22;99289.72;5097212;28;20173;-89
2023/01/30 03:28:39;;;;;;;20.13;7.90;;;;;;;7.16;72.31;99285.22;5096821;28;20672;-89
2023/01/30 03:31:04;;;;;;;19.33;8.43;;;;;;;7.16;72.33;99282.59;5096452;28;20168;-89
2023/01/30 03:33:30;;;;;;;14.73;7.80;;;;;;;7.14;71.99;99281.81;5096724;28;20657;-90
2023/01/30 03:35:55;;;;;;;15.00;7.70;;;;;;;7.10;72.22;99285.47;5096743;28;20183;-90
2023/01/30 03:38:21;;;;;;;16.87;7.73;;;;;;;7.07;72.02;99282.97;5096192;28;20188;-88
2023/01/30 03:40:46;;;;;;;18.40;8.63;;;;;;;7.07;72.04;99285.56;5096781;28;20222;-90
2023/01/30 03:43:12;;;;;;;17.67;7.43;;;;;;;7.06;72.21;99276.88;5096456;28;20182;-90
2023/01/30 03:45:37;;;;;;;13.70;7.17;;;;;;;7.15;71.98;99275.72;5095413;28;20718;-89
2023/01/30 03:48:03;;;;;;;23.77;9.17;;;;;;;7.23;71.39;99276.28;5096459;28;20181;-90
2023/01/30 03:50:28;;;;;;;17.63;8.20;;;;;;;7.22;71.30;99278.03;5096726;28;20179;-89
2023/01/30 03:52:54;;;;;;;13.97;7.63;;;;;;;7.11;71.23;99274.09;5095082;28;20184;-90
2023/01/30 03:55:19;;;;;;;15.33;7.03;;;;;;;7.00;71.82;99273.63;5096046;28;20168;-89
2023/01/30 03:57:45;;;;;;;18.17;7.97;;;;;;;7.04;71.96;99280.44;5096061;28;20243;-90
2023/01/30 04:00:11;;;;;;;17.97;8.20;;;;;;;7.05;71.74;99277.78;5094984;28;20241;-90
2023/01/30 04:02:37;;;;;;;16.30;8.53;;;;;;;7.00;71.89;99273.63;5095046;28;20306;-89
2023/01/30 04:05:04;;;;;;;15.23;8.00;;;;;;;7.07;71.78;99278.59;5096310;28;20333;-90
2023/01/30 04:07:29;;;;;;;18.53;9.10;;;;;;;7.07;71.18;99282.97;5095226;28;20533;-90
2023/01/30 04:09:55;;;;;;;19.87;8.73;;;;;;;7.04;69.29;99275.25;5095862;28;20187;-90
2023/01/30 04:12:20;;;;;;;19.17;8.57;;;;;;;7.00;69.59;99273.63;5095793;28;20188;-90
2023/01/30 04:14:46;;;;;;;22.17;8.20;;;;;;;6.94;70.66;99274.72;5095832;28;20176;-90
2023/01/30 04:17:11;;;;;;;28.40;10.10;;;;;;;6.92;70.26;99273.09;5095974;28;20187;-90
2023/01/30 04:19:36;;;;;;;15.77;8.67;;;;;;;6.87;69.74;99278.44;5095026;28;20535;-90
2023/01/30 04:22:02;;;;;;;27.23;11.77;;;;;;;6.74;69.82;99279.78;5094814;28;20169;-91
2023/01/30 04:24:27;;;;;;;30.07;10.33;;;;;;;6.71;70.31;99285.94;5095557;28;20180;-90
2023/01/30 04:26:53;;;;;;;30.30;12.47;;;;;;;6.74;70.65;99282.38;5095929;28;20226;-89
2023/01/30 04:29:18;;;;;;;27.87;11.77;;;;;;;6.71;70.49;99285.09;5095739;28;20259;-90
2023/01/30 04:31:44;;;;;;;23.60;10.57;;;;;;;6.64;71.19;99281.84;5094454;28;20237;-89
2023/01/30 04:34:09;;;;;;;27.43;10.83;;;;;;;6.64;71.11;99281.84;5095346;28;20666;-90
2023/01/30 04:36:35;;;;;;;30.00;10.90;;;;;;;6.69;70.58;99284.28;5094317;28;20222;-89
2023/01/30 04:39:01;;;;;;;27.43;11.30;;;;;;;6.64;70.26;99276.66;5095635;28;20546;-90
2023/01/30 04:41:27;;;;;;;28.93;11.23;;;;;;;6.65;70.24;99278.34;5094378;28;20200;-90
2023/01/30 04:43:52;;;;;;;21.50;9.80;;;;;;;6.68;70.06;99282.63;5095500;28;20176;-91
2023/01/30 04:46:18;;;;;;;26.53;10.53;;;;;;;6.72;70.33;99274.63;5094584;28;20172;-90
2023/01/30 04:48:43;;;;;;;25.30;10.50;;;;;;;6.73;70.29;99286.72;5095537;28;20172;-89
2023/01/30 04:51:09;;;;;;;27.00;11.50;;;;;;;6.72;69.86;99273.78;5094974;28;20180;-90
2023/01/30 04:53:34;;;;;;;25.23;11.00;;;;;;;6.62;69.32;99278.47;5093965;28;20192;-91
2023/01/30 04:56:00;;;;;;;21.30;9.77;;;;;;;6.50;69.79;99278.03;5095008;28;20261;-90
2023/01/30 04:58:25;;;;;;;29.50;11.17;;;;;;;6.51;69.82;99285.78;5094848;28;20649;-89
2023/01/30 05:00:51;;;;;;;31.63;12.57;;;;;;;6.57;70.00;99288.19;5095078;28;20615;-91
2023/01/30 05:03:16;;;;;;;34.33;13.23;;;;;;;6.55;69.77;99284.75;5093845;28;20229;-90
2023/01/30 05:05:46;;;;;;;25.93;10.87;;;;;;;6.47;70.31;99288.56;5095123;28;20173;-89
2023/01/30 05:08:11;;;;;;;24.70;11.93;;;;;;;6.33;71.14;99280.34;5095200;28;20210;-91
2023/01/30 05:10:36;;;;;;;28.00;12.33;;;;;;;6.37;71.65;99282.78;5094610;28;20251;-90
2023/01/30 05:13:04;;;;;;;25.60;10.40;;;;;;;6.34;72.33;99288.09;5092239;28;20656;-91
2023/01/30 05:15:29;;;;;;;28.27;11.23;;;;;;;6.33;72.53;99294.22;5092659;28;20185;-90
2023/01/30 05:17:54;;;;;;;30.60;10.97;;;;;;;6.34;72.13;99285.47;5093465;28;20256;-89
2023/01/30 05:20:20;;;;;;;34.27;12.03;;;;;;;6.28;72.13;99285.69;5094599;28;20220;-91
2023/01/30 05:22:45;;;;;;;28.33;12.13;;;;;;;6.29;72.15;99289.97;5093060;28;20167;-89
2023/01/30 05:25:11;;;;;;;27.40;11.67;;;;;;;6.19;72.18;99292.03;5094939;28;20203;-89
2023/01/30 05:27:36;;;;;;;25.23;11.33;;;;;;;6.19;72.22;99289.44;5094490;28;20174;-90
2023/01/30 05:30:03;;;;;;;30.20;12.20;;;;;;;6.13;72.32;99291.41;5093168;28;20178;-91
2023/01/30 05:32:29;;;;;;;21.30;10.93;;;;;;;6.17;72.19;99291.25;5093206;28;20203;-91
2023/01/30 05:34:55;;;;;;;28.37;10.77;;;;;;;6.10;72.71;99294.97;5094529;28;20172;-90
2023/01/30 05:37:21;;;;;;;18.93;8.73;;;;;;;6.12;73.07;99281.91;5093174;28;20237;-90
2023/01/30 05:39:47;;;;;;;25.67;11.07;;;;;;;6.15;73.07;99287.00;5093178;28;20198;-90
2023/01/30 05:42:13;;;;;;;25.37;9.40;;;;;;;6.00;72.93;99287.50;5093102;28;20654;-90
2023/01/30 05:44:39;;;;;;;24.83;9.27;;;;;;;5.99;73.17;99288.38;5094037;28;20174;-90
2023/01/30 05:47:06;;;;;;;28.80;11.10;;;;;;;5.98;72.89;99284.06;5093444;28;20215;-90
2023/01/30 05:49:31;;;;;;;26.00;10.33;;;;;;;5.87;73.45;99291.38;5093070;28;20184;-90
2023/01/30 05:51:57;;;;;;;19.80;9.03;;;;;;;5.76;73.57;99288.22;5094167;28;20184;-90
2023/01/30 05:54:22;;;;;;;17.60;7.00;;;;;;;5.56;73.84;99281.88;5094430;28;20199;-90
2023/01/30 05:56:49;;;;;;;25.97;10.03;;;;;;;5.40;74.38;99293.63;5093824;28;20176;-90
2023/01/30 05:59:15;;;;;;;27.13;9.57;;;;;;;5.39;75.32;99288.47;5093202;28;20266;-91
2023/01/30 06:01:40;;;;;;;19.67;9.17;;;;;;;5.42;75.31;99294.41;5093728;28;20196;-90
2023/01/30 06:04:06;;;;;;;22.83;9.53;;;;;;;5.57;74.69;99299.19;5092791;28;20184;-90
2023/01/30 06:06:31;;;;;;;21.33;9.33;;;;;;;5.47;74.81;99291.72;5092737;28;20195;-90
2023/01/30 06:08:57;;;;;;;17.80;9.00;;;;;;;5.41;75.47;99290.13;5092586;28;20184;-90
2023/01/30 06:11:23;;;;;;;20.70;9.03;;;;;;;5.50;75.26;99297.66;5093922;28;20173;-90
2023/01/30 06:13:48;;;;;;;29.77;13.53;;;;;;;5.48;75.52;99299.44;5093639;28;20211;-89
2023/01/30 06:16:16;;;;;;;35.73;11.63;;;;;;;5.59;75.57;99301.72;5093754;28;20174;-92
2023/01/30 06:18:41;;;;;;;31.60;11.27;;;;;;;5.59;75.78;99305.19;5093550;28;20189;-91
2023/01/30 06:21:08;;;;;;;26.67;11.13;;;;;;;5.72;75.57;99299.59;5093977;28;20178;-91
2023/01/30 06:23:34;;;;;;;20.57;8.70;;;;;;;5.69;75.33;99307.50;5093636;28;20181;-91
2023/01/30 06:26:00;;;;;;;38.00;14.23;;;;;;;5.75;75.20;99296.91;5092524;28;20267;-91
2023/01/30 06:28:26;;;;;;;28.10;10.70;;;;;;;5.70;75.15;99299.66;5093028;28;20287;-92
2023/01/30 06:30:52;;;;;;;24.53;10.37;;;;;;;5.53;75.48;99307.97;5092541;28;20598;-90
2023/01/30 06:33:19;;;;;;;21.87;8.97;;;;;;;5.55;76.24;99306.16;5092609;28;20218;-90
2023/01/30 06:35:48;;;;;;;32.73;13.07;;;;;;;5.49;76.75;99302.91;5093694;28;20283;-90
2023/01/30 06:38:14;;;;;;;24.73;9.37;;;;;;;5.39;77.18;99306.66;5093105;28;20259;-91
2023/01/30 06:40:40;;;;;;;26.17;10.50;;;;;;;5.51;76.55;99303.69;5093089;28;20583;-91
2023/01/30 06:43:06;;;;;;;23.60;9.87;;;;;;;5.49;76.76;99315.91;5091987;28;20261;-90
2023/01/30 06:45:32;;;;;;;22.63;9.57;;;;;;;5.26;76.38;99307.91;5092172;28;20210;-91
2023/01/30 06:47:57;;;;;;;17.83;8.73;;;;;;;5.43;75.77;99300.47;5093118;28;20173;-89
2023/01/30 06:50:26;;;;;;;22.70;8.70;;;;;;;5.36;76.36;99312.81;5092383;28;20266;-91
2023/01/30 06:52:53;;;;;;;23.00;10.73;;;;;;;5.30;76.03;99318.16;5092934;28;20241;-91
2023/01/30 06:55:20;;;;;;;19.87;7.93;;;;;;;5.40;76.50;99322.22;5093084;28;20237;-90
2023/01/30 06:57:46;;;;;;;19.77;8.73;;;;;;;5.36;76.56;99323.22;5093121;28;20183;-90
2023/01/30 07:00:18;;;;;;;22.20;9.43;;;;;;;5.66;76.56;99320.59;5091998;28;20180;-91
2023/01/30 07:02:44;;;;;;;25.80;9.23;;;;;;;5.73;75.60;99309.13;5092210;28;20203;-90
2023/01/30 07:05:10;;;;;;;25.37;10.20;;;;;;;5.77;75.54;99315.91;5092062;28;20180;-90
2023/01/30 07:07:37;;;;;;;15.47;8.07;;;;;;;5.69;74.82;99315.28;5092927;28;20245;-90
2023/01/30 07:10:05;;;;;;;22.57;9.97;;;;;;;5.76;75.18;99314.22;5091923;28;20171;-90
2023/01/30 07:12:30;;;;;;;20.43;8.33;;;;;;;5.63;75.43;99307.69;5093097;28;20570;-90
2023/01/30 07:14:56;;;;;;;20.97;9.67;;;;;;;5.67;75.40;99309.28;5092211;28;20178;-91
2023/01/30 07:17:21;;;;;;;23.33;8.83;;;;;;;5.72;75.22;99310.00;5091819;28;20172;-90
2023/01/30 07:19:47;;;;;;;19.00;9.37;;;;;;;5.65;75.24;99308.50;5091916;28;20176;-91
2023/01/30 07:22:13;;;;;;;18.53;8.87;;;;;;;5.48;76.10;99303.78;5092842;28;20171;-90
2023/01/30 07:24:39;;;;;;;18.07;8.87;;;;;;;5.66;76.16;99303.22;5093193;28;20199;-92
2023/01/30 07:27:12;;;;;;;19.87;8.70;;;;;;;5.82;75.92;99303.63;5092880;28;20174;-90
2023/01/30 07:29:38;;;;;;;22.03;9.57;;;;;;;5.88;75.41;99304.34;5092956;28;20579;-91
2023/01/30 07:32:13;;;;;;;27.80;10.77;;;;;;;6.01;74.77;99297.00;5091810;28;20186;-91
2023/01/30 07:34:38;;;;;;;24.27;10.13;;;;;;;5.93;74.21;99294.63;5091809;28;20427;-90
2023/01/30 07:37:04;;;;;;;25.63;9.80;;;;;;;5.98;74.41;99297.06;5092576;28;20204;-90
2023/01/30 07:39:29;;;;;;;16.80;7.47;;;;;;;5.94;74.49;99298.94;5091804;28;20183;-90
2023/01/30 07:41:55;;;;;;;21.60;8.23;;;;;;;5.80;73.63;99308.03;5093222;28;20181;-90
2023/01/30 07:44:20;;;;;;;25.67;9.63;;;;;;;5.70;74.87;99306.59;5091755;28;20633;-90
2023/01/30 07:46:46;;;;;;;22.30;8.63;;;;;;;5.82;74.55;99303.63;5092547;28;20175;-91
2023/01/30 07:49:11;;;;;;;20.03;8.53;;;;;;;5.83;73.67;99297.53;5091655;28;20595;-90
2023/01/30 07:51:37;;;;;;;18.93;9.67;;;;;;;5.79;72.73;99303.75;5092662;28;20175;-89
2023/01/30 07:54:03;;;;;;;21.37;7.67;;;;;;;5.76;73.23;99296.88;5095416;28;20728;-90
2023/01/30 07:56:29;;;;;;;18.20;8.97;;;;;;;5.82;72.20;99294.06;5095295;28;20547;-91
2023/01/30 07:58:55;;;;;;;21.57;9.27;;;;;;;5.77;72.13;99295.97;5096138;28;20541;-91
2023/01/30 08:01:21;;;;;;;19.03;7.43;;;;;;;5.81;71.17;99299.34;5095972;28;20262;-89
2023/01/30 08:03:48;;;;;;;16.50;7.40;;;;;;;5.93;71.38;99296.38;5095059;28;20180;-90
2023/01/30 08:06:14;;;;;;;18.40;7.90;;;;;;;6.14;70.04;99290.50;5095132;28;20191;-91
2023/01/30 08:08:40;;;;;;;15.97;8.20;;;;;;;6.41;69.28;99281.78;5095033;28;20188;-90
2023/01/30 08:11:05;;;;;;;17.03;8.20;;;;;;;6.60;68.44;99276.81;5094976;28;20269;-91
2023/01/30 08:13:31;;;;;;;19.70;9.23;;;;;;;6.70;68.68;99270.38;5096015;28;20323;-91
2023/01/30 08:16:05;;;;;;;20.30;8.30;;;;;;;6.91;68.24;99281.78;5096054;28;20179;-90
2023/01/30 08:18:31;;;;;;;14.90;5.77;;;;;;;6.77;65.66;99283.13;5095819;28;20170;-90
2023/01/30 08:21:01;;;;;;;14.80;6.47;;;;;;;6.55;64.96;99276.94;5095968;28;20225;-89
2023/01/30 08:23:26;;;;;;;15.97;6.87;;;;;;;6.50;65.82;99286.66;5095643;28;20588;-91
2023/01/30 08:26:00;;;;;;;16.50;7.17;;;;;;;6.76;66.61;99276.22;5095656;28;20199;-90
2023/01/30 08:28:27;;;;;;;16.60;6.77;;;;;;;6.43;65.48;99284.31;5094578;28;20605;-90
2023/01/30 08:30:55;;;;;;;25.43;8.93;;;;;;;6.37;65.20;99287.97;5095479;28;20172;-92
2023/01/30 08:33:22;;;;;;;17.53;7.23;;;;;;;6.55;63.70;99286.53;5094419;28;20204;-90
2023/01/30 08:35:47;;;;;;;21.10;8.13;;;;;;;6.77;64.37;99280.53;5095465;28;20180;-90
2023/01/30 08:38:13;;;;;;;17.43;7.33;;;;;;;6.99;64.94;99271.97;5095287;28;20203;-90
2023/01/30 08:40:39;;;;;;;14.77;7.10;;;;;;;6.84;65.47;99273.31;5095281;28;20493;-90
2023/01/30 08:43:05;;;;;;;25.33;8.27;;;;;;;7.02;65.19;99267.50;5095495;28;20240;-91
2023/01/30 08:45:31;;;;;;;23.87;7.37;;;;;;;7.13;64.86;99260.09;5095279;28;20233;-89
2023/01/30 08:48:00;;;;;;;16.57;7.37;;;;;;;6.97;64.77;99272.00;5094171;28;20275;-90
2023/01/30 08:50:26;;;;;;;17.73;8.37;;;;;;;7.05;64.08;99271.75;5095406;28;20179;-90
2023/01/30 08:52:52;;;;;;;10.67;5.27;;;;;;;7.13;62.74;99269.69;5094079;28;20193;-90
2023/01/30 08:55:18;;;;;;;13.47;6.30;;;;;;;6.88;62.23;99269.72;5094027;28;20270;-91
2023/01/30 08:57:43;;;;;;;17.17;6.60;;;;;;;6.78;63.48;99269.22;5094014;28;20191;-90
2023/01/30 09:00:10;;;;;;;16.20;6.93;;;;;;;6.91;63.51;99268.78;5094338;28;20224;-90
2023/01/30 09:02:35;;;;;;;12.83;6.20;;;;;;;7.03;62.75;99273.53;5094006;28;20241;-90
2023/01/30 09:05:01;;;;;;;13.13;5.90;;;;;;;6.76;60.34;99265.78;5093252;28;20180;-90
2023/01/30 09:07:27;;;;;;;15.20;6.27;;;;;;;6.76;61.42;99263.19;5093751;28;20261;-90
2023/01/30 09:09:53;;;;;;;14.47;5.63;;;;;;;6.81;61.77;99253.44;5094553;28;20172;-90
2023/01/30 09:12:19;;;;;;;14.20;5.63;;;;;;;6.67;61.07;99253.09;5094740;28;20288;-90
2023/01/30 09:14:44;;;;;;;19.10;7.57;;;;;;;6.62;61.76;99249.81;5093963;28;20627;-90
2023/01/30 09:17:11;;;;;;;15.70;6.67;;;;;;;6.97;62.01;99248.53;5093841;28;20203;-89
2023/01/30 09:19:37;;;;;;;20.73;6.57;;;;;;;6.97;60.48;99247.72;5093558;28;20692;-89
2023/01/30 09:22:03;;;;;;;19.37;6.90;;;;;;;6.72;59.59;99247.72;5094623;28;20172;-91
2023/01/30 09:24:39;;;;;;;16.67;7.27;;;;;;;6.77;61.71;99246.66;5094543;28;20230;-94
2023/01/30 09:27:04;;;;;;;15.80;6.40;;;;;;;6.98;62.00;99244.19;5093600;28;20263;-89
2023/01/30 09:29:30;;;;;;;14.03;5.37;;;;;;;6.72;62.93;99238.16;5093415;28;20214;-89
2023/01/30 09:31:55;;;;;;;17.47;6.20;;;;;;;6.82;62.49;99228.25;5093201;28;20214;-92
2023/01/30 09:34:26;;;;;;;14.33;6.27;;;;;;;6.97;61.21;99224.25;5093157;28;20177;-91
2023/01/30 09:36:53;;;;;;;18.07;6.77;;;;;;;7.10;62.37;99222.91;5094363;28;20257;-91
2023/01/30 09:39:18;;;;;;;18.30;8.37;;;;;;;7.27;61.93;99215.28;5094281;28;20263;-89
2023/01/30 09:41:59;;;;;;;16.17;6.83;;;;;;;7.40;60.72;99208.69;5092243;28;20267;-88
2023/01/30 09:44:53;;;;;;;15.67;6.60;;;;;;;7.22;58.21;99206.78;5094325;28;20238;-90
2023/01/30 09:47:51;;;;;;;19.87;8.83;;;;;;;7.37;59.83;99200.97;5094223;28;20176;-90
2023/01/30 09:50:31;;;;;;;17.13;7.30;;;;;;;6.98;59.08;99197.28;5070998;28;20556;-88
2023/01/30 09:53:24;;;;;;;10.93;5.30;;;;;;;7.08;58.70;99183.84;5094364;28;20188;-89
2023/01/30 09:55:50;;;;;;;17.17;6.53;;;;;;;6.94;60.06;99186.13;5094126;28;20156;-90
2023/01/30 09:58:19;;;;;;;16.17;6.87;;;;;;;6.92;60.71;99187.09;5092757;28;20199;-90
2023/01/30 10:00:47;;;;;;;16.60;7.07;;;;;;;7.09;61.18;99171.66;5093841;28;20250;-90
2023/01/30 10:03:18;;;;;;;10.70;5.40;;;;;;;7.05;59.26;99170.09;5092787;28;20172;-91
2023/01/30 10:05:49;;;;;;;16.57;6.37;;;;;;;6.84;59.11;99169.13;5092850;28;20579;-90
2023/01/30 10:08:20;;;;;;;12.30;5.27;;;;;;;6.96;60.69;99163.47;5094457;28;20612;-89
2023/01/30 10:11:00;;;;;;;12.13;5.90;;;;;;;6.75;60.24;99162.53;5093529;28;20199;-90
2023/01/30 10:14:07;;;;;;;11.20;4.60;;;;;;;6.76;60.13;99155.56;5093823;28;20212;-88
2023/01/30 10:16:57;;;;;;;15.30;6.23;;;;;;;6.67;60.00;99155.88;5058118;28;20180;-88
2023/01/30 10:19:41;;;;;;;14.47;6.00;;;;;;;6.58;60.47;99151.00;5093782;28;20547;-89
2023/01/30 10:22:24;;;;;;;13.63;5.23;;;;;;;6.72;59.92;99144.41;5092928;28;20172;-89
2023/01/30 10:25:06;;;;;;;14.47;5.23;;;;;;;6.61;59.75;99143.94;5093825;28;20175;-91
2023/01/30 10:27:33;;;;;;;10.40;5.10;;;;;;;6.64;59.94;99129.94;5092570;28;20267;-90
2023/01/30 10:30:03;;;;;;;16.40;6.53;;;;;;;6.81;60.56;99127.59;5093527;28;20172;-92
2023/01/30 10:32:42;;;;;;;14.37;6.47;;;;;;;7.03;59.40;99118.03;5093613;28;20223;-90
2023/01/30 10:35:24;;;;;;;16.13;5.20;;;;;;;6.84;59.02;99117.03;5092384;28;20251;-89
2023/01/30 10:38:26;;;;;;;8.53;4.80;;;;;;;6.80;59.86;99118.06;5093224;28;20188;-90
2023/01/30 10:41:12;;;;;;;10.83;5.07;;;;;;;6.87;58.21;99101.28;5093822;28;20198;-91
2023/01/30 10:43:42;;;;;;;13.03;5.27;;;;;;;6.76;58.22;99109.50;5093487;28;20164;-90
2023/01/30 10:46:38;;;;;;;13.37;5.53;;;;;;;7.10;58.92;99093.41;5093375;28;20164;-91
2023/01/30 10:49:10;;;;;;;14.37;6.17;;;;;;;7.05;58.71;99090.16;5093629;28;20175;-88
2023/01/30 10:51:44;;;;;;;14.00;6.10;;;;;;;6.62;58.30;99082.28;5092700;28;20498;-90
2023/01/30 10:54:23;;;;;;;15.57;5.23;;;;;;;6.44;60.00;99082.97;5092087;28;20196;-91
2023/01/30 10:57:01;;;;;;;10.73;4.67;;;;;;;6.69;60.11;99074.19;5093490;28;20161;-91
2023/01/30 10:59:53;;;;;;;10.13;5.63;;;;;;;6.79;59.41;99064.25;5093345;28;20166;-91
2023/01/30 11:02:41;;;;;;;10.83;5.37;;;;;;;6.94;59.99;99057.63;5093361;28;20157;-91
2023/01/30 11:05:14;;;;;;;11.17;4.77;;;;;;;7.12;58.36;99051.66;5045950;28;20194;-90
2023/01/30 11:07:44;;;;;;;12.67;6.07;;;;;;;7.33;57.57;99037.78;5092851;28;20245;-89
2023/01/30 11:10:23;;;;;;;19.33;6.30;;;;;;;7.08;57.63;99045.72;5092146;28;20257;-89
2023/01/30 11:12:59;;;;;;;14.13;6.23;;;;;;;7.15;58.26;99030.69;5093123;28;20195;-91
2023/01/30 11:15:38;;;;;;;15.77;7.20;;;;;;;7.46;57.14;99022.47;5093341;28;20505;-91
2023/01/30 11:18:06;;;;;;;11.47;4.90;;;;;;;7.32;56.25;99015.22;5092517;28;20182;-90
2023/01/30 11:20:39;;;;;;;14.47;4.60;;;;;;;7.33;57.54;99012.56;5092786;28;20172;-90
2023/01/30 11:23:06;;;;;;;8.30;4.53;;;;;;;7.14;56.31;99010.75;5091752;28;20263;-89
2023/01/30 11:25:47;;;;;;;11.03;4.70;;;;;;;7.21;56.49;99001.75;5091837;28;20176;-91
2023/01/30 11:28:16;;;;;;;12.13;4.70;;;;;;;7.43;56.96;98992.16;5094499;28;20222;-90
2023/01/30 11:30:41;;;;;;;13.63;4.73;;;;;;;7.26;57.36;98994.59;5096734;28;20199;-91
2023/01/30 11:33:16;;;;;;;11.83;4.87;;;;;;;7.62;56.91;98992.22;5095770;28;20222;-91
2023/01/30 11:36:03;;;;;;;10.40;4.07;;;;;;;7.40;54.84;98992.28;5095650;28;20179;-90
2023/01/30 11:38:33;;;;;;;10.20;4.40;;;;;;;7.38;56.04;98994.09;5095629;28;20241;-90
2023/01/30 11:41:18;;;;;;;15.57;5.30;;;;;;;7.16;55.25;98988.06;5095928;28;20169;-90
2023/01/30 11:43:44;;;;;;;8.90;3.57;;;;;;;7.07;56.35;98993.69;5095423;28;20165;-89
2023/01/30 11:46:12;;;;;;;11.43;4.23;;;;;;;7.04;56.52;98989.44;5095486;28;20183;-90
2023/01/30 11:49:10;;;;;;;11.20;4.97;;;;;;;7.33;56.42;98988.25;5095600;28;20588;-91